createdAt,value
2022-12-12T00:02:11.824Z,4.77
2022-12-12T00:04:38.557Z,4.80
2022-12-12T00:07:05.580Z,4.81
2022-12-12T00:09:33.006Z,4.86
2022-12-12T00:11:59.702Z,4.78
2022-12-12T00:14:26.388Z,4.85
2022-12-12T00:16:53.090Z,4.81
2022-12-12T00:19:19.794Z,4.82
2022-12-12T00:21:47.127Z,4.62
2022-12-12T00:24:13.798Z,4.72
2022-12-12T00:26:40.488Z,4.76
2022-12-12T00:29:07.555Z,4.74
2022-12-12T00:31:34.224Z,4.67
2022-12-12T00:34:00.988Z,4.62
2022-12-12T00:36:30.941Z,4.48
2022-12-12T00:38:58.336Z,4.35
2022-12-12T00:41:25.115Z,4.40
2022-12-12T00:43:51.805Z,4.42
2022-12-12T00:46:21.546Z,4.43
2022-12-12T00:48:48.368Z,4.35
2022-12-12T00:51:21.184Z,4.20
2022-12-12T00:53:48.713Z,4.05
2022-12-12T00:56:17.222Z,4.01
2022-12-12T00:58:43.944Z,4.05
2022-12-12T01:01:13.742Z,3.95
2022-12-12T01:03:42.232Z,4.07
2022-12-12T01:06:10.321Z,4.10
2022-12-12T01:08:38.032Z,4.13
2022-12-12T01:11:05.952Z,4.20
2022-12-12T01:13:32.896Z,4.07
2022-12-12T01:15:59.765Z,3.90
2022-12-12T01:18:26.712Z,3.84
2022-12-12T01:20:53.821Z,3.77
2022-12-12T01:23:20.490Z,3.78
2022-12-12T01:25:47.205Z,3.91
2022-12-12T01:28:14.581Z,4.04
2022-12-12T01:30:41.313Z,4.17
2022-12-12T01:33:07.992Z,4.23
2022-12-12T01:35:35.027Z,4.27
2022-12-12T01:38:01.797Z,4.36
2022-12-12T01:40:30.699Z,4.21
2022-12-12T01:42:59.428Z,4.10
2022-12-12T01:45:54.170Z,4.05
2022-12-12T01:48:23.516Z,4.06
2022-12-12T01:50:51.043Z,4.11
2022-12-12T01:53:19.361Z,4.09
2022-12-12T01:55:48.030Z,4.04
2022-12-12T01:58:16.108Z,4.12
2022-12-12T02:00:43.377Z,4.20
2022-12-12T02:03:10.297Z,4.22
2022-12-12T02:05:44.964Z,4.29
2022-12-12T02:08:13.068Z,4.31
2022-12-12T02:10:39.819Z,4.35
2022-12-12T02:13:11.028Z,4.37
2022-12-12T02:16:04.196Z,4.34
2022-12-12T02:18:57.054Z,4.32
2022-12-12T02:21:41.621Z,4.37
2022-12-12T02:24:44.735Z,4.35
2022-12-12T02:27:23.272Z,4.40
2022-12-12T02:30:11.000Z,4.41
2022-12-12T02:32:55.951Z,4.35
2022-12-12T02:35:31.010Z,4.25
2022-12-12T02:38:15.801Z,4.23
2022-12-12T02:41:07.632Z,4.20
2022-12-12T02:43:44.822Z,4.18
2022-12-12T02:46:24.266Z,4.21
2022-12-12T02:48:54.312Z,4.24
2022-12-12T02:51:22.458Z,4.23
2022-12-12T02:53:49.157Z,4.20
2022-12-12T02:56:54.981Z,4.18
2022-12-12T02:59:35.305Z,4.32
2022-12-12T03:02:26.688Z,4.45
2022-12-12T03:05:43.189Z,4.47
2022-12-12T03:08:31.702Z,4.47
2022-12-12T03:11:13.443Z,4.39
2022-12-12T03:14:05.249Z,4.38
2022-12-12T03:17:00.993Z,4.43
2022-12-12T03:19:36.544Z,4.38
2022-12-12T03:22:26.227Z,4.38
2022-12-12T03:25:34.477Z,4.43
2022-12-12T03:28:15.013Z,4.52
2022-12-12T03:30:46.770Z,4.61
2022-12-12T03:33:22.092Z,4.65
2022-12-12T03:35:55.521Z,4.64
2022-12-12T03:38:28.858Z,4.62
2022-12-12T03:41:01.295Z,4.64
2022-12-12T03:43:35.475Z,4.68
2022-12-12T03:46:20.761Z,4.51
2022-12-12T03:48:55.616Z,4.57
2022-12-12T03:51:27.722Z,4.54
2022-12-12T03:54:08.741Z,4.49
2022-12-12T03:56:47.432Z,4.52
2022-12-12T03:59:36.621Z,4.41
2022-12-12T04:02:21.693Z,4.25
2022-12-12T04:05:00.281Z,4.30
2022-12-12T04:07:34.359Z,4.35
2022-12-12T04:10:19.692Z,4.44
2022-12-12T04:13:15.872Z,4.54
2022-12-12T04:15:46.808Z,4.52
2022-12-12T04:18:13.434Z,4.56
2022-12-12T04:21:09.900Z,4.57
2022-12-12T04:23:47.535Z,4.63
2022-12-12T04:26:39.232Z,4.60
2022-12-12T04:29:16.924Z,4.55
2022-12-12T04:32:06.953Z,4.54
2022-12-12T04:34:42.638Z,4.57
2022-12-12T04:37:13.735Z,4.58
2022-12-12T04:39:43.031Z,4.58
2022-12-12T04:42:14.649Z,4.63
2022-12-12T04:44:44.746Z,4.53
2022-12-12T04:47:14.027Z,4.61
2022-12-12T04:49:45.001Z,4.59
2022-12-12T04:52:15.270Z,4.65
2022-12-12T04:54:51.033Z,4.61
2022-12-12T04:57:25.587Z,4.61
2022-12-12T04:59:52.401Z,4.51
2022-12-12T05:02:39.846Z,4.39
2022-12-12T05:05:12.478Z,4.33
2022-12-12T05:07:40.670Z,4.23
2022-12-12T05:10:11.929Z,4.12
2022-12-12T05:12:57.275Z,4.03
2022-12-12T05:15:24.192Z,3.89
2022-12-12T05:18:03.140Z,3.82
2022-12-12T05:20:29.872Z,3.84
2022-12-12T05:22:56.508Z,3.83
2022-12-12T05:25:23.221Z,3.81
2022-12-12T05:27:49.855Z,3.74
2022-12-12T05:30:16.644Z,3.61
2022-12-12T05:32:43.289Z,3.60
2022-12-12T05:35:11.286Z,3.64
2022-12-12T05:37:38.195Z,3.56
2022-12-12T05:40:06.959Z,3.51
2022-12-12T05:42:33.595Z,3.31
2022-12-12T05:45:00.973Z,3.37
2022-12-12T05:47:27.613Z,3.38
2022-12-12T05:49:54.296Z,3.37
2022-12-12T05:52:21.288Z,3.40
2022-12-12T05:54:47.947Z,3.51
2022-12-12T05:57:14.679Z,3.61
2022-12-12T05:59:41.358Z,3.71
2022-12-12T06:02:08.010Z,3.82
2022-12-12T06:04:34.809Z,3.79
2022-12-12T06:07:01.520Z,3.74
2022-12-12T06:09:28.269Z,3.63
2022-12-12T06:11:54.891Z,3.74
2022-12-12T06:14:21.667Z,3.73
2022-12-12T06:16:48.318Z,3.76
2022-12-12T06:19:15.233Z,3.78
2022-12-12T06:21:41.868Z,3.81
2022-12-12T06:24:08.636Z,3.82
2022-12-12T06:26:35.313Z,3.91
2022-12-12T06:29:02.103Z,3.98
2022-12-12T06:31:28.784Z,4.05
2022-12-12T06:33:55.499Z,4.11
2022-12-12T06:36:24.343Z,4.06
2022-12-12T06:38:51.951Z,4.07
2022-12-12T06:41:19.326Z,4.07
2022-12-12T06:43:46.242Z,3.99
2022-12-12T06:46:16.742Z,3.92
2022-12-12T06:48:44.359Z,3.81
2022-12-12T06:51:14.650Z,3.80
2022-12-12T06:53:41.836Z,3.83
2022-12-12T06:56:17.731Z,3.88
2022-12-12T06:58:44.777Z,3.92
2022-12-12T07:01:13.360Z,3.87
2022-12-12T07:03:40.115Z,3.88
2022-12-12T07:06:07.434Z,3.92
2022-12-12T07:08:35.528Z,3.91
2022-12-12T07:11:15.428Z,3.83
2022-12-12T07:13:42.767Z,3.81
2022-12-12T07:16:10.356Z,3.81
2022-12-12T07:18:37.128Z,3.82
2022-12-12T07:21:05.567Z,3.84
2022-12-12T07:23:32.782Z,3.88
2022-12-12T07:26:02.618Z,3.90
2022-12-12T07:28:29.270Z,3.87
2022-12-12T07:30:55.950Z,3.82
2022-12-12T07:33:22.654Z,3.74
2022-12-12T07:35:49.252Z,3.71
2022-12-12T07:38:15.927Z,3.69
2022-12-12T07:40:42.504Z,3.70
2022-12-12T07:43:09.197Z,3.70
2022-12-12T07:45:35.850Z,3.71
2022-12-12T07:48:02.583Z,3.77
2022-12-12T07:50:29.297Z,3.82
2022-12-12T07:52:56.005Z,3.91
2022-12-12T07:55:22.673Z,3.94
2022-12-12T07:57:49.988Z,3.92
2022-12-12T08:00:17.375Z,4.01
2022-12-12T08:02:44.074Z,4.09
2022-12-12T08:05:10.945Z,4.01
2022-12-12T08:07:37.771Z,3.99
2022-12-12T08:10:05.692Z,4.04
2022-12-12T08:12:32.920Z,4.04
2022-12-12T08:14:59.579Z,4.02
2022-12-12T08:17:26.231Z,4.07
2022-12-12T08:19:52.914Z,4.21
2022-12-12T08:22:20.046Z,4.25
2022-12-12T08:24:48.940Z,4.26
2022-12-12T08:27:16.129Z,4.17
2022-12-12T08:29:43.565Z,4.12
2022-12-12T08:32:10.252Z,4.15
2022-12-12T08:34:36.892Z,4.06
2022-12-12T08:37:03.594Z,3.96
2022-12-12T08:39:31.589Z,3.92
2022-12-12T08:41:58.511Z,3.83
2022-12-12T08:44:25.209Z,3.92
2022-12-12T08:46:51.948Z,3.99
2022-12-12T08:49:18.712Z,4.19
2022-12-12T08:51:45.535Z,4.37
2022-12-12T08:54:13.052Z,4.38
2022-12-12T08:56:40.485Z,4.45
2022-12-12T08:59:07.206Z,4.66
2022-12-12T09:01:34.109Z,4.82
2022-12-12T09:04:01.604Z,4.97
2022-12-12T09:06:28.353Z,4.87
2022-12-12T09:08:56.205Z,4.62
2022-12-12T09:11:23.718Z,4.56
2022-12-12T09:13:51.887Z,4.32
2022-12-12T09:16:19.792Z,4.18
2022-12-12T09:18:49.266Z,4.17
2022-12-12T09:21:16.979Z,4.18
2022-12-12T09:23:43.653Z,4.35
2022-12-12T09:26:10.899Z,4.49
2022-12-12T09:28:37.721Z,4.62
2022-12-12T09:31:06.828Z,4.73
2022-12-12T09:33:35.128Z,4.78
2022-12-12T09:36:04.365Z,4.90
2022-12-12T09:38:31.605Z,4.91
2022-12-12T09:41:00.555Z,4.91
2022-12-12T09:43:33.214Z,4.93
2022-12-12T09:46:03.021Z,5.08
2022-12-12T09:48:41.375Z,4.97
2022-12-12T09:51:09.624Z,4.82
2022-12-12T09:53:37.396Z,4.64
2022-12-12T09:56:29.896Z,4.85
2022-12-12T09:59:05.445Z,4.82
2022-12-12T10:01:44.575Z,4.86
2022-12-12T10:04:38.167Z,4.87
2022-12-12T10:07:25.959Z,5.12
2022-12-12T10:10:23.172Z,5.25
2022-12-12T10:12:51.433Z,5.32
2022-12-12T10:15:29.668Z,5.37
2022-12-12T10:18:00.206Z,5.57
2022-12-12T10:20:32.204Z,5.96
2022-12-12T10:23:20.659Z,5.80
2022-12-12T10:25:56.847Z,5.82
2022-12-12T10:28:26.039Z,5.68
2022-12-12T10:31:30.438Z,5.49
2022-12-12T10:34:12.483Z,5.50
2022-12-12T10:37:10.660Z,6.04
2022-12-12T10:39:56.128Z,8.10
2022-12-12T10:42:57.871Z,10.59
2022-12-12T10:45:30.607Z,12.12
2022-12-12T10:47:57.409Z,14.12
2022-12-12T10:50:26.765Z,12.75
2022-12-12T10:52:54.001Z,12.76
2022-12-12T10:55:49.576Z,12.80
2022-12-12T10:58:19.878Z,10.79
2022-12-12T11:00:48.981Z,10.92
2022-12-12T11:03:36.073Z,10.48
2022-12-12T11:06:15.378Z,11.10
2022-12-12T11:08:53.843Z,11.63
2022-12-12T11:11:24.020Z,11.76
2022-12-12T11:14:03.105Z,11.98
2022-12-12T11:16:41.101Z,11.96
2022-12-12T11:19:20.127Z,12.78
2022-12-12T11:21:47.827Z,13.69
2022-12-12T11:24:29.508Z,15.31
2022-12-12T11:26:59.403Z,16.45
2022-12-12T11:29:46.645Z,17.81
2022-12-12T11:32:20.735Z,17.99
2022-12-12T11:34:51.468Z,18.26
2022-12-12T11:37:21.822Z,19.48
2022-12-12T11:39:53.183Z,20.15
2022-12-12T11:42:31.087Z,20.25
2022-12-12T11:45:04.912Z,20.07
2022-12-12T11:47:40.675Z,20.40
2022-12-12T11:50:29.051Z,21.53
2022-12-12T11:53:03.198Z,20.77
2022-12-12T11:55:57.643Z,21.17
2022-12-12T11:58:32.467Z,20.48
2022-12-12T12:01:25.827Z,19.44
2022-12-12T12:04:11.370Z,18.96
2022-12-12T12:06:49.466Z,17.74
2022-12-12T12:09:31.935Z,17.38
2022-12-12T12:12:12.979Z,15.42
2022-12-12T12:14:52.082Z,14.61
2022-12-12T12:17:21.720Z,13.46
2022-12-12T12:20:03.342Z,13.05
2022-12-12T12:23:04.175Z,11.74
2022-12-12T12:25:45.826Z,10.66
2022-12-12T12:28:52.726Z,9.65
2022-12-12T12:31:40.898Z,9.07
2022-12-12T12:34:18.877Z,8.75
2022-12-12T12:36:45.572Z,8.41
2022-12-12T12:39:52.994Z,8.41
2022-12-12T12:42:38.249Z,8.07
2022-12-12T12:45:21.483Z,7.58
2022-12-12T12:47:55.931Z,7.53
2022-12-12T12:50:40.897Z,7.36
2022-12-12T12:53:33.504Z,7.19
2022-12-12T12:56:07.742Z,6.97
2022-12-12T12:58:42.774Z,6.77
2022-12-12T13:01:14.731Z,6.82
2022-12-12T13:03:51.948Z,6.63
2022-12-12T13:06:32.738Z,6.47
2022-12-12T13:09:20.922Z,6.36
2022-12-12T13:11:50.668Z,6.30
2022-12-12T13:14:41.435Z,6.43
2022-12-12T13:17:17.254Z,6.33
2022-12-12T13:19:47.069Z,6.30
2022-12-12T13:22:51.293Z,6.29
2022-12-12T13:25:30.977Z,6.33
2022-12-12T13:28:00.859Z,6.29
2022-12-12T13:30:45.783Z,6.19
2022-12-12T13:33:29.686Z,6.14
2022-12-12T13:36:08.729Z,6.17
2022-12-12T13:38:35.812Z,6.29
2022-12-12T13:41:06.513Z,6.17
2022-12-12T13:43:33.075Z,6.15
2022-12-12T13:46:28.628Z,6.35
2022-12-12T13:49:07.163Z,6.58
2022-12-12T13:51:44.613Z,6.71
2022-12-12T13:54:14.480Z,6.82
2022-12-12T13:56:47.834Z,6.80
2022-12-12T13:59:23.643Z,6.72
2022-12-12T14:01:52.758Z,6.67
2022-12-12T14:04:43.854Z,6.61
2022-12-12T14:07:25.377Z,6.43
2022-12-12T14:09:55.915Z,6.32
2022-12-12T14:12:32.004Z,6.26
2022-12-12T14:15:02.172Z,5.94
2022-12-12T14:17:38.393Z,5.85
2022-12-12T14:20:25.103Z,5.79
2022-12-12T14:22:51.659Z,5.72
2022-12-12T14:25:36.348Z,5.47
2022-12-12T14:28:13.574Z,5.53
2022-12-12T14:30:47.433Z,5.57
2022-12-12T14:33:17.087Z,5.41
2022-12-12T14:36:02.148Z,5.37
2022-12-12T14:39:06.957Z,5.24
2022-12-12T14:41:37.915Z,5.25
2022-12-12T14:44:36.147Z,5.13
2022-12-12T14:47:07.684Z,5.33
2022-12-12T14:49:34.491Z,5.33
2022-12-12T14:52:01.546Z,5.25
2022-12-12T14:54:28.285Z,5.25
2022-12-12T14:57:04.076Z,5.23
2022-12-12T14:59:39.813Z,5.21
2022-12-12T15:02:15.952Z,5.11
2022-12-12T15:04:47.050Z,4.97
2022-12-12T15:07:28.604Z,4.77
2022-12-12T15:09:55.312Z,4.70
2022-12-12T15:12:24.909Z,4.60
2022-12-12T15:14:55.078Z,4.46
2022-12-12T15:17:30.971Z,4.36
2022-12-12T15:20:01.647Z,4.35
2022-12-12T15:22:28.332Z,4.22
2022-12-12T15:24:57.275Z,4.20
2022-12-12T15:27:41.976Z,4.16
2022-12-12T15:30:28.878Z,4.16
2022-12-12T15:32:55.721Z,4.12
2022-12-12T15:35:23.376Z,4.09
2022-12-12T15:38:01.773Z,4.06
2022-12-12T15:40:30.818Z,3.99
2022-12-12T15:43:07.121Z,3.88
2022-12-12T15:45:37.814Z,3.77
2022-12-12T15:48:06.159Z,3.76
2022-12-12T15:50:38.556Z,3.76
2022-12-12T15:53:32.526Z,3.79
2022-12-12T15:55:59.156Z,3.85
2022-12-12T15:58:35.527Z,3.85
2022-12-12T16:01:20.844Z,3.84
2022-12-12T16:04:26.002Z,3.73
2022-12-12T16:06:52.747Z,3.53
2022-12-12T16:09:22.064Z,3.45
2022-12-12T16:11:54.385Z,3.33
2022-12-12T16:14:40.668Z,3.18
2022-12-12T16:17:20.691Z,3.18
2022-12-12T16:20:05.961Z,3.19
2022-12-12T16:22:35.783Z,3.21
2022-12-12T16:25:11.557Z,3.30
2022-12-12T16:27:38.264Z,3.33
2022-12-12T16:30:05.708Z,3.34
2022-12-12T16:32:32.387Z,3.34
2022-12-12T16:34:59.081Z,3.29
2022-12-12T16:37:25.750Z,3.26
2022-12-12T16:39:52.631Z,3.21
2022-12-12T16:42:20.939Z,3.22
2022-12-12T16:44:47.758Z,3.18
2022-12-12T16:47:19.671Z,3.13
2022-12-12T16:49:46.955Z,2.98
2022-12-12T16:52:18.652Z,2.95
2022-12-12T16:54:52.796Z,2.90
2022-12-12T16:57:21.505Z,2.82
2022-12-12T16:59:48.274Z,2.86
2022-12-12T17:02:20.840Z,2.82
2022-12-12T17:04:48.700Z,2.68
2022-12-12T17:07:16.262Z,2.67
2022-12-12T17:09:43.219Z,2.66
2022-12-12T17:12:11.707Z,2.63
2022-12-12T17:14:38.610Z,2.64
2022-12-12T17:17:05.473Z,2.60
2022-12-12T17:19:32.660Z,2.58
2022-12-12T17:21:59.640Z,2.71
2022-12-12T17:24:26.839Z,2.76
2022-12-12T17:26:53.760Z,2.81
2022-12-12T17:29:21.808Z,2.90
2022-12-12T17:31:48.694Z,2.92
2022-12-12T17:34:15.768Z,2.98
2022-12-12T17:36:42.616Z,2.90
2022-12-12T17:39:10.942Z,2.78
2022-12-12T17:41:37.863Z,2.76
2022-12-12T17:44:05.132Z,2.73
2022-12-12T17:46:32.431Z,2.71
2022-12-12T17:49:01.777Z,2.75
2022-12-12T17:51:29.543Z,2.80
2022-12-12T17:53:56.600Z,2.83
2022-12-12T17:56:24.748Z,2.91
2022-12-12T17:58:52.435Z,3.01
2022-12-12T18:01:31.607Z,2.99
2022-12-12T18:03:59.821Z,3.01
2022-12-12T18:06:29.225Z,3.01
2022-12-12T18:08:56.873Z,2.99
2022-12-12T18:11:27.376Z,3.00
2022-12-12T18:13:57.730Z,2.99
2022-12-12T18:16:27.143Z,3.01
2022-12-12T18:18:56.108Z,2.93
2022-12-12T18:21:59.235Z,2.87
2022-12-12T18:24:13.812Z,2.85
2022-12-12T18:26:41.056Z,2.84
2022-12-12T18:29:08.758Z,2.77
2022-12-12T18:31:35.726Z,2.75
2022-12-12T18:34:03.459Z,2.66
2022-12-12T18:36:31.356Z,2.52
2022-12-12T18:39:00.332Z,2.29
2022-12-12T18:41:28.382Z,2.29
2022-12-12T18:43:55.619Z,2.14
2022-12-12T18:46:24.673Z,2.04
2022-12-12T18:48:51.484Z,2.06
2022-12-12T18:51:23.756Z,1.95
2022-12-12T18:53:52.252Z,1.91
2022-12-12T18:56:24.491Z,1.92
2022-12-12T18:58:55.559Z,1.96
2022-12-12T19:01:24.946Z,1.91
2022-12-12T19:03:53.403Z,1.86
2022-12-12T19:06:22.668Z,1.83
2022-12-12T19:08:49.422Z,1.82
2022-12-12T19:11:16.763Z,1.76
2022-12-12T19:13:43.506Z,1.73
2022-12-12T19:16:13.323Z,1.61
2022-12-12T19:18:41.349Z,1.57
2022-12-12T19:21:13.570Z,1.64
2022-12-12T19:23:41.142Z,1.58
2022-12-12T19:26:10.963Z,1.61
2022-12-12T19:28:38.192Z,1.59
2022-12-12T19:31:10.516Z,1.71
2022-12-12T19:33:37.641Z,1.70
2022-12-12T19:36:16.871Z,1.63
2022-12-12T19:38:44.611Z,1.53
2022-12-12T19:41:14.092Z,1.58
2022-12-12T19:43:42.350Z,1.54
2022-12-12T19:46:12.147Z,1.57
2022-12-12T19:48:39.919Z,1.53
2022-12-12T19:51:18.479Z,1.44
2022-12-12T19:53:47.624Z,1.33
2022-12-12T19:56:17.024Z,1.25
2022-12-12T19:58:44.283Z,1.31
2022-12-12T20:01:18.157Z,1.24
2022-12-12T20:03:53.768Z,1.28
2022-12-12T20:06:20.933Z,1.32
2022-12-12T20:08:48.119Z,1.20
2022-12-12T20:11:21.128Z,1.20
2022-12-12T20:13:54.583Z,1.00
2022-12-12T20:16:24.695Z,0.94
2022-12-12T20:18:52.455Z,1.00
2022-12-12T20:21:59.140Z,1.00
2022-12-12T20:24:12.557Z,1.07
2022-12-12T20:26:40.712Z,1.06
2022-12-12T20:29:08.940Z,0.85
2022-12-12T20:31:38.017Z,0.93
2022-12-12T20:34:04.918Z,0.82
2022-12-12T20:36:34.221Z,0.72
2022-12-12T20:39:03.823Z,0.74
2022-12-12T20:41:34.473Z,0.73
2022-12-12T20:44:01.211Z,0.73
2022-12-12T20:46:33.820Z,0.73
2022-12-12T20:49:03.528Z,0.86
2022-12-12T20:51:54.662Z,0.86
2022-12-12T20:54:19.818Z,0.87
2022-12-12T20:56:46.782Z,0.89
2022-12-12T20:59:14.468Z,0.87
2022-12-12T21:01:41.433Z,0.75
2022-12-12T21:04:09.406Z,0.59
2022-12-12T21:06:39.738Z,0.62
2022-12-12T21:09:09.644Z,0.68
2022-12-12T21:11:38.042Z,0.51
2022-12-12T21:14:06.102Z,0.49
2022-12-12T21:16:36.015Z,0.58
2022-12-12T21:19:06.347Z,0.66
2022-12-12T21:21:33.237Z,0.69
2022-12-12T21:24:00.526Z,0.73
2022-12-12T21:26:29.633Z,0.71
2022-12-12T21:28:57.723Z,0.70
2022-12-12T21:31:27.993Z,0.59
2022-12-12T21:33:55.343Z,0.70
2022-12-12T21:36:23.520Z,0.59
2022-12-12T21:38:51.948Z,0.70
2022-12-12T21:41:21.551Z,0.69
2022-12-12T21:43:49.389Z,0.64
2022-12-12T21:46:22.534Z,0.56
2022-12-12T21:49:08.491Z,0.59
2022-12-12T21:51:35.745Z,0.60
2022-12-12T21:54:07.047Z,0.65
2022-12-12T21:56:34.074Z,0.48
2022-12-12T21:59:00.781Z,0.59
2022-12-12T22:01:27.802Z,0.58
2022-12-12T22:03:55.189Z,0.50
2022-12-12T22:06:25.727Z,0.53
2022-12-12T22:08:55.162Z,0.43
2022-12-12T22:11:39.751Z,0.45
2022-12-12T22:14:09.040Z,0.48
2022-12-12T22:16:35.804Z,0.48
2022-12-12T22:19:06.471Z,0.59
2022-12-12T22:21:34.299Z,0.57
2022-12-12T22:24:01.326Z,0.60
2022-12-12T22:26:34.362Z,0.47
2022-12-12T22:29:04.498Z,0.52
2022-12-12T22:31:35.340Z,0.60
2022-12-12T22:34:04.692Z,0.59
2022-12-12T22:36:34.895Z,0.52
2022-12-12T22:39:01.940Z,0.47
2022-12-12T22:41:29.475Z,0.58
2022-12-12T22:43:58.239Z,0.61
2022-12-12T22:46:26.308Z,0.67
2022-12-12T22:48:54.737Z,0.70
2022-12-12T22:51:24.832Z,0.62
2022-12-12T22:53:51.931Z,0.67
2022-12-12T22:56:18.626Z,0.66
2022-12-12T22:58:45.391Z,0.63
2022-12-12T23:01:18.384Z,0.64
2022-12-12T23:03:46.225Z,0.62
2022-12-12T23:06:22.996Z,0.52
2022-12-12T23:08:55.587Z,0.59
2022-12-12T23:11:23.518Z,0.58
2022-12-12T23:13:53.000Z,0.52
2022-12-12T23:16:21.973Z,0.53
2022-12-12T23:18:48.664Z,0.40
2022-12-12T23:21:18.345Z,0.47
2022-12-12T23:23:46.013Z,0.54
2022-12-12T23:26:15.959Z,0.46
2022-12-12T23:28:44.007Z,0.54
2022-12-12T23:31:18.696Z,0.50
2022-12-12T23:33:46.603Z,0.52
2022-12-12T23:36:15.429Z,0.57
2022-12-12T23:38:43.573Z,0.61
2022-12-12T23:41:12.992Z,0.57
2022-12-12T23:43:40.632Z,0.44
2022-12-12T23:46:28.028Z,0.43
2022-12-12T23:48:59.218Z,0.59
2022-12-12T23:51:28.310Z,0.57
2022-12-12T23:54:00.722Z,0.61
2022-12-12T23:56:28.236Z,0.57
2022-12-12T23:58:56.775Z,0.43
